sensor_id;sensor_type;location;lat;lon;timestamp;pressure;altitude;pressure_sealevel;temperature;humidity
65276;BME280;51875;49.994;14.052;2023-10-31T00:00:23;96274.00;;;12.93;100.00
65276;BME280;51875;49.994;14.052;2023-10-31T00:02:00;96272.81;;;13.22;100.00
65276;BME280;51875;49.994;14.052;2023-10-31T00:03:15;96271.38;;;13.18;100.00
65276;BME280;51875;49.994;14.052;2023-10-31T00:04:31;96270.22;;;13.33;100.00
65276;BME280;51875;49.994;14.052;2023-10-31T00:05:47;96262.63;;;13.41;100.00
65276;BME280;51875;49.994;14.052;2023-10-31T00:07:02;96255.25;;;13.47;100.00
65276;BME280;51875;49.994;14.052;2023-10-31T00:08:18;96250.00;;;13.47;100.00
65276;BME280;51875;49.994;14.052;2023-10-31T00:09:34;96255.91;;;13.37;100.00
65276;BME280;51875;49.994;14.052;2023-10-31T00:10:49;96261.00;;;13.27;100.00
65276;BME280;51875;49.994;14.052;2023-10-31T00:12:05;96272.38;;;13.28;100.00
65276;BME280;51875;49.994;14.052;2023-10-31T00:13:21;96283.88;;;12.65;100.00
65276;BME280;51875;49.994;14.052;2023-10-31T00:14:39;96294.09;;;12.44;100.00
65276;BME280;51875;49.994;14.052;2023-10-31T00:15:54;96304.53;;;12.70;100.00
65276;BME280;51875;49.994;14.052;2023-10-31T00:17:10;96300.75;;;12.61;100.00
65276;BME280;51875;49.994;14.052;2023-10-31T00:18:26;96308.50;;;12.76;100.00
65276;BME280;51875;49.994;14.052;2023-10-31T00:19:41;96315.69;;;12.98;100.00
65276;BME280;51875;49.994;14.052;2023-10-31T00:20:57;96316.19;;;13.03;100.00
65276;BME280;51875;49.994;14.052;2023-10-31T00:22:13;96326.72;;;13.03;100.00
65276;BME280;51875;49.994;14.052;2023-10-31T00:23:28;96329.41;;;13.14;100.00
65276;BME280;51875;49.994;14.052;2023-10-31T00:24:43;96335.16;;;12.95;100.00
65276;BME280;51875;49.994;14.052;2023-10-31T00:25:59;96341.50;;;12.80;100.00
65276;BME280;51875;49.994;14.052;2023-10-31T00:27:15;96342.84;;;12.85;100.00
65276;BME280;51875;49.994;14.052;2023-10-31T00:28:30;96348.88;;;12.99;100.00
65276;BME280;51875;49.994;14.052;2023-10-31T00:29:46;96346.53;;;12.83;100.00
65276;BME280;51875;49.994;14.052;2023-10-31T00:31:02;96351.44;;;12.88;100.00
65276;BME280;51875;49.994;14.052;2023-10-31T00:32:19;96349.53;;;12.90;100.00
65276;BME280;51875;49.994;14.052;2023-10-31T00:33:34;96345.03;;;12.92;100.00
65276;BME280;51875;49.994;14.052;2023-10-31T00:34:50;96347.81;;;13.02;100.00
65276;BME280;51875;49.994;14.052;2023-10-31T00:36:07;96336.19;;;13.17;100.00
65276;BME280;51875;49.994;14.052;2023-10-31T00:37:23;96330.38;;;13.25;100.00
65276;BME280;51875;49.994;14.052;2023-10-31T00:38:38;96339.03;;;13.27;100.00
65276;BME280;51875;49.994;14.052;2023-10-31T00:39:54;96357.41;;;13.27;100.00
65276;BME280;51875;49.994;14.052;2023-10-31T00:41:10;96360.53;;;13.32;100.00
65276;BME280;51875;49.994;14.052;2023-10-31T00:42:25;96378.38;;;13.03;100.00
65276;BME280;51875;49.994;14.052;2023-10-31T00:43:40;96372.66;;;12.84;100.00
65276;BME280;51875;49.994;14.052;2023-10-31T00:44:56;96376.22;;;12.96;100.00
65276;BME280;51875;49.994;14.052;2023-10-31T00:46:12;96377.66;;;13.00;100.00
65276;BME280;51875;49.994;14.052;2023-10-31T00:47:27;96374.97;;;12.89;100.00
65276;BME280;51875;49.994;14.052;2023-10-31T00:48:43;96368.09;;;12.99;100.00
65276;BME280;51875;49.994;14.052;2023-10-31T00:49:59;96361.41;;;12.82;100.00
65276;BME280;51875;49.994;14.052;2023-10-31T00:51:14;96367.88;;;13.16;100.00
65276;BME280;51875;49.994;14.052;2023-10-31T00:52:30;96360.69;;;13.18;100.00
65276;BME280;51875;49.994;14.052;2023-10-31T00:53:45;96353.53;;;13.20;100.00
65276;BME280;51875;49.994;14.052;2023-10-31T00:55:01;96353.94;;;13.26;100.00
65276;BME280;51875;49.994;14.052;2023-10-31T00:56:17;96355.50;;;13.29;100.00
65276;BME280;51875;49.994;14.052;2023-10-31T00:57:32;96353.63;;;13.31;100.00
65276;BME280;51875;49.994;14.052;2023-10-31T00:58:48;96341.97;;;13.22;100.00
65276;BME280;51875;49.994;14.052;2023-10-31T01:00:04;96340.41;;;13.20;100.00
65276;BME280;51875;49.994;14.052;2023-10-31T01:01:19;96339.78;;;13.16;100.00
65276;BME280;51875;49.994;14.052;2023-10-31T01:02:35;96341.34;;;13.19;100.00
65276;BME280;51875;49.994;14.052;2023-10-31T01:03:51;96343.25;;;13.17;100.00
65276;BME280;51875;49.994;14.052;2023-10-31T01:05:07;96350.47;;;13.26;100.00
65276;BME280;51875;49.994;14.052;2023-10-31T01:06:22;96342.75;;;13.11;100.00
65276;BME280;51875;49.994;14.052;2023-10-31T01:07:38;96342.00;;;13.09;100.00
65276;BME280;51875;49.994;14.052;2023-10-31T01:08:54;96334.75;;;13.13;100.00
65276;BME280;51875;49.994;14.052;2023-10-31T01:10:09;96339.53;;;13.32;100.00
65276;BME280;51875;49.994;14.052;2023-10-31T01:11:25;96343.81;;;13.33;100.00
65276;BME280;51875;49.994;14.052;2023-10-31T01:12:41;96341.69;;;13.38;100.00
65276;BME280;51875;49.994;14.052;2023-10-31T01:13:57;96346.22;;;13.36;100.00
65276;BME280;51875;49.994;14.052;2023-10-31T01:15:12;96340.97;;;13.36;100.00
65276;BME280;51875;49.994;14.052;2023-10-31T01:16:28;96349.69;;;13.37;100.00
65276;BME280;51875;49.994;14.052;2023-10-31T01:17:44;96347.16;;;13.35;100.00
65276;BME280;51875;49.994;14.052;2023-10-31T01:18:59;96344.88;;;13.31;100.00
65276;BME280;51875;49.994;14.052;2023-10-31T01:20:15;96334.50;;;13.29;100.00
65276;BME280;51875;49.994;14.052;2023-10-31T01:21:31;96344.00;;;13.19;100.00
65276;BME280;51875;49.994;14.052;2023-10-31T01:22:46;96342.25;;;13.06;100.00
65276;BME280;51875;49.994;14.052;2023-10-31T01:24:02;96345.88;;;13.17;100.00
65276;BME280;51875;49.994;14.052;2023-10-31T01:25:18;96338.34;;;13.12;100.00
65276;BME280;51875;49.994;14.052;2023-10-31T01:26:34;96342.56;;;13.02;100.00
65276;BME280;51875;49.994;14.052;2023-10-31T01:27:51;96344.94;;;12.93;100.00
65276;BME280;51875;49.994;14.052;2023-10-31T01:29:06;96346.13;;;12.76;100.00
65276;BME280;51875;49.994;14.052;2023-10-31T01:30:22;96353.28;;;12.61;100.00
65276;BME280;51875;49.994;14.052;2023-10-31T01:31:40;96366.50;;;12.73;100.00
65276;BME280;51875;49.994;14.052;2023-10-31T01:32:56;96374.13;;;12.76;100.00
65276;BME280;51875;49.994;14.052;2023-10-31T01:34:12;96368.25;;;12.85;100.00
65276;BME280;51875;49.994;14.052;2023-10-31T01:35:27;96368.34;;;12.83;100.00
65276;BME280;51875;49.994;14.052;2023-10-31T01:36:43;96370.84;;;12.98;100.00
65276;BME280;51875;49.994;14.052;2023-10-31T01:37:58;96364.53;;;13.00;100.00
65276;BME280;51875;49.994;14.052;2023-10-31T01:39:14;96373.44;;;13.11;100.00
65276;BME280;51875;49.994;14.052;2023-10-31T01:40:30;96367.63;;;13.19;100.00
65276;BME280;51875;49.994;14.052;2023-10-31T01:41:45;96371.75;;;13.10;100.00
65276;BME280;51875;49.994;14.052;2023-10-31T01:43:01;96379.19;;;13.16;100.00
65276;BME280;51875;49.994;14.052;2023-10-31T01:44:17;96385.63;;;13.12;100.00
65276;BME280;51875;49.994;14.052;2023-10-31T01:45:33;96386.34;;;13.14;100.00
65276;BME280;51875;49.994;14.052;2023-10-31T01:46:48;96381.47;;;12.83;100.00
65276;BME280;51875;49.994;14.052;2023-10-31T01:48:05;96390.13;;;12.85;100.00
65276;BME280;51875;49.994;14.052;2023-10-31T01:49:21;96384.72;;;13.00;100.00
65276;BME280;51875;49.994;14.052;2023-10-31T01:50:36;96376.00;;;12.99;100.00
65276;BME280;51875;49.994;14.052;2023-10-31T01:51:52;96379.66;;;12.97;100.00
65276;BME280;51875;49.994;14.052;2023-10-31T01:53:07;96380.13;;;12.91;100.00
65276;BME280;51875;49.994;14.052;2023-10-31T01:54:23;96377.03;;;12.97;100.00
65276;BME280;51875;49.994;14.052;2023-10-31T01:55:39;96381.97;;;13.02;100.00
65276;BME280;51875;49.994;14.052;2023-10-31T01:56:55;96376.00;;;12.99;100.00
65276;BME280;51875;49.994;14.052;2023-10-31T01:58:14;96382.69;;;13.04;100.00
65276;BME280;51875;49.994;14.052;2023-10-31T01:59:30;96387.53;;;13.10;100.00
65276;BME280;51875;49.994;14.052;2023-10-31T02:00:46;96390.97;;;13.10;100.00
65276;BME280;51875;49.994;14.052;2023-10-31T02:02:01;96384.91;;;13.10;100.00
65276;BME280;51875;49.994;14.052;2023-10-31T02:03:17;96391.53;;;13.03;100.00
65276;BME280;51875;49.994;14.052;2023-10-31T02:04:33;96386.91;;;13.06;100.00
65276;BME280;51875;49.994;14.052;2023-10-31T02:05:51;96386.41;;;13.01;100.00
65276;BME280;51875;49.994;14.052;2023-10-31T02:07:08;96391.44;;;13.04;100.00
65276;BME280;51875;49.994;14.052;2023-10-31T02:08:25;96386.03;;;13.06;100.00
65276;BME280;51875;49.994;14.052;2023-10-31T02:09:41;96391.78;;;12.87;100.00
65276;BME280;51875;49.994;14.052;2023-10-31T02:10:56;96382.34;;;12.71;100.00
65276;BME280;51875;49.994;14.052;2023-10-31T02:12:31;96391.03;;;12.84;100.00
65276;BME280;51875;49.994;14.052;2023-10-31T02:13:48;96386.13;;;13.17;100.00
65276;BME280;51875;49.994;14.052;2023-10-31T02:15:04;96384.28;;;13.06;100.00
65276;BME280;51875;49.994;14.052;2023-10-31T02:16:20;96383.31;;;13.07;100.00
65276;BME280;51875;49.994;14.052;2023-10-31T02:17:36;96384.28;;;13.31;100.00
65276;BME280;51875;49.994;14.052;2023-10-31T02:18:52;96380.78;;;13.19;100.00
65276;BME280;51875;49.994;14.052;2023-10-31T02:20:08;96392.31;;;13.29;100.00
65276;BME280;51875;49.994;14.052;2023-10-31T02:21:25;96395.66;;;13.31;100.00
65276;BME280;51875;49.994;14.052;2023-10-31T02:22:41;96399.09;;;13.07;100.00
65276;BME280;51875;49.994;14.052;2023-10-31T02:23:57;96405.03;;;13.22;100.00
65276;BME280;51875;49.994;14.052;2023-10-31T02:25:17;96395.41;;;13.10;100.00
65276;BME280;51875;49.994;14.052;2023-10-31T02:26:34;96398.66;;;13.13;100.00
65276;BME280;51875;49.994;14.052;2023-10-31T02:27:50;96399.06;;;13.20;100.00
65276;BME280;51875;49.994;14.052;2023-10-31T02:29:05;96398.59;;;13.02;100.00
65276;BME280;51875;49.994;14.052;2023-10-31T02:30:22;96403.28;;;13.10;100.00
65276;BME280;51875;49.994;14.052;2023-10-31T02:31:38;96397.84;;;13.00;100.00
65276;BME280;51875;49.994;14.052;2023-10-31T02:32:54;96395.00;;;13.03;100.00
65276;BME280;51875;49.994;14.052;2023-10-31T02:34:09;96396.69;;;12.91;100.00
65276;BME280;51875;49.994;14.052;2023-10-31T02:35:25;96393.66;;;12.84;100.00
65276;BME280;51875;49.994;14.052;2023-10-31T02:36:41;96402.25;;;12.99;100.00
65276;BME280;51875;49.994;14.052;2023-10-31T02:37:57;96403.44;;;12.95;100.00
65276;BME280;51875;49.994;14.052;2023-10-31T02:39:12;96401.34;;;12.88;100.00
65276;BME280;51875;49.994;14.052;2023-10-31T02:40:28;96408.16;;;12.90;100.00
65276;BME280;51875;49.994;14.052;2023-10-31T02:41:44;96407.31;;;12.90;100.00
65276;BME280;51875;49.994;14.052;2023-10-31T02:42:59;96404.16;;;12.84;100.00
65276;BME280;51875;49.994;14.052;2023-10-31T02:44:15;96405.97;;;12.84;100.00
65276;BME280;51875;49.994;14.052;2023-10-31T02:45:31;96404.28;;;12.83;100.00
65276;BME280;51875;49.994;14.052;2023-10-31T02:46:46;96413.09;;;12.95;100.00
65276;BME280;51875;49.994;14.052;2023-10-31T02:48:02;96414.03;;;13.07;100.00
65276;BME280;51875;49.994;14.052;2023-10-31T02:49:18;96410.78;;;12.90;100.00
65276;BME280;51875;49.994;14.052;2023-10-31T02:50:33;96413.31;;;12.92;100.00
65276;BME280;51875;49.994;14.052;2023-10-31T02:51:49;96417.84;;;12.90;100.00
65276;BME280;51875;49.994;14.052;2023-10-31T02:53:04;96416.69;;;12.81;100.00
65276;BME280;51875;49.994;14.052;2023-10-31T02:54:20;96427.59;;;12.88;100.00
65276;BME280;51875;49.994;14.052;2023-10-31T02:55:36;96423.59;;;12.95;100.00
65276;BME280;51875;49.994;14.052;2023-10-31T02:56:51;96419.78;;;12.99;100.00
65276;BME280;51875;49.994;14.052;2023-10-31T02:58:06;96419.72;;;12.88;100.00
65276;BME280;51875;49.994;14.052;2023-10-31T02:59:23;96430.75;;;12.93;100.00
65276;BME280;51875;49.994;14.052;2023-10-31T03:00:39;96432.88;;;12.88;100.00
65276;BME280;51875;49.994;14.052;2023-10-31T03:01:56;96430.44;;;12.84;100.00
65276;BME280;51875;49.994;14.052;2023-10-31T03:03:12;96438.84;;;12.77;100.00
65276;BME280;51875;49.994;14.052;2023-10-31T03:04:28;96434.13;;;12.69;100.00
65276;BME280;51875;49.994;14.052;2023-10-31T03:05:43;96426.44;;;12.92;100.00
65276;BME280;51875;49.994;14.052;2023-10-31T03:06:59;96429.56;;;12.97;100.00
65276;BME280;51875;49.994;14.052;2023-10-31T03:08:14;96433.06;;;12.97;100.00
65276;BME280;51875;49.994;14.052;2023-10-31T03:09:30;96443.25;;;12.76;100.00
65276;BME280;51875;49.994;14.052;2023-10-31T03:10:47;96441.28;;;12.80;100.00
65276;BME280;51875;49.994;14.052;2023-10-31T03:12:05;96432.53;;;12.79;100.00
65276;BME280;51875;49.994;14.052;2023-10-31T03:13:20;96438.22;;;12.86;100.00
65276;BME280;51875;49.994;14.052;2023-10-31T03:14:36;96443.38;;;12.88;100.00
65276;BME280;51875;49.994;14.052;2023-10-31T03:15:52;96443.88;;;12.93;100.00
65276;BME280;51875;49.994;14.052;2023-10-31T03:17:07;96438.22;;;12.86;100.00
65276;BME280;51875;49.994;14.052;2023-10-31T03:18:23;96436.63;;;12.83;100.00
65276;BME280;51875;49.994;14.052;2023-10-31T03:19:39;96437.47;;;12.84;100.00
65276;BME280;51875;49.994;14.052;2023-10-31T03:20:54;96439.78;;;12.89;100.00
65276;BME280;51875;49.994;14.052;2023-10-31T03:22:10;96445.88;;;12.89;100.00
65276;BME280;51875;49.994;14.052;2023-10-31T03:23:26;96443.88;;;12.93;100.00
65276;BME280;51875;49.994;14.052;2023-10-31T03:24:41;96453.22;;;12.97;100.00
65276;BME280;51875;49.994;14.052;2023-10-31T03:25:57;96451.97;;;12.77;100.00
65276;BME280;51875;49.994;14.052;2023-10-31T03:27:12;96458.59;;;12.82;100.00
65276;BME280;51875;49.994;14.052;2023-10-31T03:28:28;96459.53;;;12.81;100.00
65276;BME280;51875;49.994;14.052;2023-10-31T03:29:44;96463.22;;;12.92;100.00
65276;BME280;51875;49.994;14.052;2023-10-31T03:30:59;96468.16;;;12.96;100.00
65276;BME280;51875;49.994;14.052;2023-10-31T03:32:15;96460.59;;;12.92;100.00
65276;BME280;51875;49.994;14.052;2023-10-31T03:33:31;96458.06;;;12.77;100.00
65276;BME280;51875;49.994;14.052;2023-10-31T03:34:47;96459.72;;;12.91;100.00
65276;BME280;51875;49.994;14.052;2023-10-31T03:36:03;96455.56;;;12.89;100.00
65276;BME280;51875;49.994;14.052;2023-10-31T03:37:19;96450.50;;;12.73;100.00
65276;BME280;51875;49.994;14.052;2023-10-31T03:38:35;96454.91;;;12.85;100.00
65276;BME280;51875;49.994;14.052;2023-10-31T03:39:51;96451.34;;;12.86;100.00
65276;BME280;51875;49.994;14.052;2023-10-31T03:41:07;96457.00;;;12.93;100.00
65276;BME280;51875;49.994;14.052;2023-10-31T03:42:22;96455.97;;;12.95;100.00
65276;BME280;51875;49.994;14.052;2023-10-31T03:43:38;96451.84;;;12.91;100.00
65276;BME280;51875;49.994;14.052;2023-10-31T03:44:54;96454.16;;;12.96;100.00
65276;BME280;51875;49.994;14.052;2023-10-31T03:46:11;96463.09;;;12.80;100.00
65276;BME280;51875;49.994;14.052;2023-10-31T03:47:27;96455.09;;;12.95;100.00
65276;BME280;51875;49.994;14.052;2023-10-31T03:48:42;96458.41;;;12.85;100.00
65276;BME280;51875;49.994;14.052;2023-10-31T03:49:58;96464.06;;;12.79;100.00
65276;BME280;51875;49.994;14.052;2023-10-31T03:51:13;96456.38;;;13.02;100.00
65276;BME280;51875;49.994;14.052;2023-10-31T03:52:29;96462.16;;;12.81;100.00
65276;BME280;51875;49.994;14.052;2023-10-31T03:53:45;96463.00;;;12.82;100.00
65276;BME280;51875;49.994;14.052;2023-10-31T03:55:00;96466.69;;;12.79;100.00
65276;BME280;51875;49.994;14.052;2023-10-31T03:56:18;96467.63;;;12.78;100.00
65276;BME280;51875;49.994;14.052;2023-10-31T03:57:33;96474.13;;;12.98;100.00
65276;BME280;51875;49.994;14.052;2023-10-31T03:58:52;96480.88;;;12.90;100.00
65276;BME280;51875;49.994;14.052;2023-10-31T04:00:09;96477.56;;;12.99;100.00
65276;BME280;51875;49.994;14.052;2023-10-31T04:01:26;96486.44;;;12.85;100.00
65276;BME280;51875;49.994;14.052;2023-10-31T04:02:42;96484.34;;;12.77;100.00
65276;BME280;51875;49.994;14.052;2023-10-31T04:03:58;96481.38;;;12.95;100.00
65276;BME280;51875;49.994;14.052;2023-10-31T04:05:13;96483.16;;;12.81;100.00
65276;BME280;51875;49.994;14.052;2023-10-31T04:06:29;96485.69;;;12.83;100.00
65276;BME280;51875;49.994;14.052;2023-10-31T04:07:47;96482.75;;;12.88;100.00
65276;BME280;51875;49.994;14.052;2023-10-31T04:09:03;96478.03;;;12.80;100.00
65276;BME280;51875;49.994;14.052;2023-10-31T04:10:19;96482.88;;;12.73;100.00
65276;BME280;51875;49.994;14.052;2023-10-31T04:11:35;96476.44;;;12.77;100.00
65276;BME280;51875;49.994;14.052;2023-10-31T04:12:51;96478.34;;;12.75;100.00
65276;BME280;51875;49.994;14.052;2023-10-31T04:14:06;96479.06;;;12.90;100.00
65276;BME280;51875;49.994;14.052;2023-10-31T04:15:22;96484.34;;;12.77;100.00
65276;BME280;51875;49.994;14.052;2023-10-31T04:16:39;96485.47;;;12.86;100.00
65276;BME280;51875;49.994;14.052;2023-10-31T04:17:55;96494.41;;;12.83;100.00
65276;BME280;51875;49.994;14.052;2023-10-31T04:19:12;96488.72;;;12.77;100.00
65276;BME280;51875;49.994;14.052;2023-10-31T04:20:28;96489.16;;;12.83;100.00
65276;BME280;51875;49.994;14.052;2023-10-31T04:21:44;96488.41;;;12.81;100.00
65276;BME280;51875;49.994;14.052;2023-10-31T04:22:59;96488.00;;;12.75;100.00
65276;BME280;51875;49.994;14.052;2023-10-31T04:24:15;96485.38;;;12.75;100.00
65276;BME280;51875;49.994;14.052;2023-10-31T04:25:30;96479.72;;;12.81;100.00
65276;BME280;51875;49.994;14.052;2023-10-31T04:26:46;96483.16;;;12.81;100.00
65276;BME280;51875;49.994;14.052;2023-10-31T04:28:02;96478.22;;;12.77;100.00
65276;BME280;51875;49.994;14.052;2023-10-31T04:29:17;96478.03;;;12.67;100.00
65276;BME280;51875;49.994;14.052;2023-10-31T04:30:33;96477.50;;;12.75;100.00
65276;BME280;51875;49.994;14.052;2023-10-31T04:31:49;96481.91;;;12.87;100.00
65276;BME280;51875;49.994;14.052;2023-10-31T04:33:04;96479.47;;;12.71;100.00
65276;BME280;51875;49.994;14.052;2023-10-31T04:34:20;96484.56;;;12.74;100.00
65276;BME280;51875;49.994;14.052;2023-10-31T04:35:35;96485.16;;;12.91;100.00
65276;BME280;51875;49.994;14.052;2023-10-31T04:36:51;96487.59;;;12.81;100.00
65276;BME280;51875;49.994;14.052;2023-10-31T04:38:07;96469.22;;;12.81;100.00
65276;BME280;51875;49.994;14.052;2023-10-31T04:39:23;96487.34;;;12.71;100.00
65276;BME280;51875;49.994;14.052;2023-10-31T04:40:38;96499.22;;;12.77;100.00
65276;BME280;51875;49.994;14.052;2023-10-31T04:41:54;96488.53;;;12.93;100.00
65276;BME280;51875;49.994;14.052;2023-10-31T04:43:10;96487.69;;;12.79;100.00
65276;BME280;51875;49.994;14.052;2023-10-31T04:44:25;96488.09;;;12.86;100.00
65276;BME280;51875;49.994;14.052;2023-10-31T04:45:41;96487.03;;;13.14;100.00
65276;BME280;51875;49.994;14.052;2023-10-31T04:46:59;96492.53;;;12.85;100.00
65276;BME280;51875;49.994;14.052;2023-10-31T04:48:15;96479.28;;;12.74;100.00
65276;BME280;51875;49.994;14.052;2023-10-31T04:49:30;96481.91;;;12.87;100.00
65276;BME280;51875;49.994;14.052;2023-10-31T04:50:46;96492.63;;;12.97;100.00
65276;BME280;51875;49.994;14.052;2023-10-31T04:52:02;96494.00;;;12.90;100.00
65276;BME280;51875;49.994;14.052;2023-10-31T04:53:17;96499.34;;;13.01;100.00
65276;BME280;51875;49.994;14.052;2023-10-31T04:54:33;96496.84;;;12.87;100.00
65276;BME280;51875;49.994;14.052;2023-10-31T04:55:49;96498.41;;;13.02;100.00
65276;BME280;51875;49.994;14.052;2023-10-31T04:57:05;96497.66;;;12.87;100.00
65276;BME280;51875;49.994;14.052;2023-10-31T04:58:20;96486.13;;;12.64;100.00
65276;BME280;51875;49.994;14.052;2023-10-31T04:59:36;96485.69;;;12.83;100.00
65276;BME280;51875;49.994;14.052;2023-10-31T05:00:51;96496.81;;;12.74;100.00
65276;BME280;51875;49.994;14.052;2023-10-31T05:02:07;96496.94;;;12.85;100.00
65276;BME280;51875;49.994;14.052;2023-10-31T05:03:23;96496.41;;;12.93;100.00
65276;BME280;51875;49.994;14.052;2023-10-31T05:04:39;96497.78;;;12.73;100.00
65276;BME280;51875;49.994;14.052;2023-10-31T05:05:55;96504.81;;;12.72;100.00
65276;BME280;51875;49.994;14.052;2023-10-31T05:07:10;96500.81;;;12.66;100.00
65276;BME280;51875;49.994;14.052;2023-10-31T05:08:28;96499.56;;;12.72;100.00
65276;BME280;51875;49.994;14.052;2023-10-31T05:09:43;96504.91;;;12.70;100.00
65276;BME280;51875;49.994;14.052;2023-10-31T05:10:59;96510.69;;;12.63;100.00
65276;BME280;51875;49.994;14.052;2023-10-31T05:12:14;96513.31;;;12.63;100.00
65276;BME280;51875;49.994;14.052;2023-10-31T05:13:30;96520.75;;;12.69;100.00
65276;BME280;51875;49.994;14.052;2023-10-31T05:14:46;96528.63;;;12.69;100.00
65276;BME280;51875;49.994;14.052;2023-10-31T05:16:01;96523.72;;;12.77;100.00
65276;BME280;51875;49.994;14.052;2023-10-31T05:17:17;96535.56;;;12.57;100.00
65276;BME280;51875;49.994;14.052;2023-10-31T05:18:32;96528.63;;;12.69;100.00
65276;BME280;51875;49.994;14.052;2023-10-31T05:19:48;96531.06;;;12.72;100.00
65276;BME280;51875;49.994;14.052;2023-10-31T05:21:05;96532.94;;;12.70;100.00
65276;BME280;51875;49.994;14.052;2023-10-31T05:22:21;96535.66;;;12.55;100.00
65276;BME280;51875;49.994;14.052;2023-10-31T05:23:37;96537.25;;;12.58;100.00
65276;BME280;51875;49.994;14.052;2023-10-31T05:24:52;96533.03;;;12.55;100.00
65276;BME280;51875;49.994;14.052;2023-10-31T05:26:10;96545.03;;;12.73;100.00
65276;BME280;51875;49.994;14.052;2023-10-31T05:27:26;96552.91;;;12.60;100.00
65276;BME280;51875;49.994;14.052;2023-10-31T05:28:43;96553.41;;;12.52;100.00
65276;BME280;51875;49.994;14.052;2023-10-31T05:29:58;96557.28;;;12.59;100.00
65276;BME280;51875;49.994;14.052;2023-10-31T05:31:17;96561.31;;;12.65;100.00
65276;BME280;51875;49.994;14.052;2023-10-31T05:32:33;96572.00;;;12.62;100.00
65276;BME280;51875;49.994;14.052;2023-10-31T05:33:49;96554.78;;;12.57;100.00
65276;BME280;51875;49.994;14.052;2023-10-31T05:35:05;96568.22;;;12.66;100.00
65276;BME280;51875;49.994;14.052;2023-10-31T05:36:25;96563.19;;;12.63;100.00
65276;BME280;51875;49.994;14.052;2023-10-31T05:37:43;96563.63;;;12.82;100.00
65276;BME280;51875;49.994;14.052;2023-10-31T05:38:59;96562.25;;;12.77;100.00
65276;BME280;51875;49.994;14.052;2023-10-31T05:40:15;96561.31;;;12.65;100.00
65276;BME280;51875;49.994;14.052;2023-10-31T05:41:34;96564.66;;;12.67;100.00
65276;BME280;51875;49.994;14.052;2023-10-31T05:42:50;96569.63;;;12.84;100.00
65276;BME280;51875;49.994;14.052;2023-10-31T05:44:05;96568.75;;;12.71;100.00
65276;BME280;51875;49.994;14.052;2023-10-31T05:45:21;96577.69;;;12.68;100.00
65276;BME280;51875;49.994;14.052;2023-10-31T05:46:40;96588.00;;;12.71;100.00
65276;BME280;51875;49.994;14.052;2023-10-31T05:47:56;96584.31;;;12.74;100.00
65276;BME280;51875;49.994;14.052;2023-10-31T05:49:12;96599.66;;;12.67;100.00
65276;BME280;51875;49.994;14.052;2023-10-31T05:50:27;96594.28;;;12.69;100.00
65276;BME280;51875;49.994;14.052;2023-10-31T05:51:43;96598.63;;;12.83;100.00
65276;BME280;51875;49.994;14.052;2023-10-31T05:52:59;96599.34;;;12.72;100.00
65276;BME280;51875;49.994;14.052;2023-10-31T05:54:14;96600.03;;;12.61;100.00
65276;BME280;51875;49.994;14.052;2023-10-31T05:55:30;96600.88;;;12.62;100.00
65276;BME280;51875;49.994;14.052;2023-10-31T05:56:46;96603.72;;;12.59;100.00
65276;BME280;51875;49.994;14.052;2023-10-31T05:58:02;96609.06;;;12.57;100.00
65276;BME280;51875;49.994;14.052;2023-10-31T05:59:17;96603.53;;;12.62;100.00
65276;BME280;51875;49.994;14.052;2023-10-31T06:00:33;96607.81;;;12.63;100.00
65276;BME280;51875;49.994;14.052;2023-10-31T06:01:49;96610.44;;;12.63;100.00
65276;BME280;51875;49.994;14.052;2023-10-31T06:03:05;96621.69;;;12.65;100.00
65276;BME280;51875;49.994;14.052;2023-10-31T06:04:21;96621.09;;;12.74;100.00
65276;BME280;51875;49.994;14.052;2023-10-31T06:05:36;96635.56;;;12.67;100.00
65276;BME280;51875;49.994;14.052;2023-10-31T06:06:53;96629.63;;;12.50;100.00
65276;BME280;51875;49.994;14.052;2023-10-31T06:08:08;96643.28;;;12.55;100.00
65276;BME280;51875;49.994;14.052;2023-10-31T06:09:24;96640.56;;;12.57;100.00
65276;BME280;51875;49.994;14.052;2023-10-31T06:10:39;96650.41;;;12.53;100.00
65276;BME280;51875;49.994;14.052;2023-10-31T06:11:55;96649.03;;;12.48;100.00
65276;BME280;51875;49.994;14.052;2023-10-31T06:13:10;96650.34;;;12.68;100.00
65276;BME280;51875;49.994;14.052;2023-10-31T06:14:26;96650.66;;;12.63;100.00
65276;BME280;51875;49.994;14.052;2023-10-31T06:15:42;96649.53;;;12.40;100.00
65276;BME280;51875;49.994;14.052;2023-10-31T06:16:57;96657.25;;;12.56;100.00
65276;BME280;51875;49.994;14.052;2023-10-31T06:18:14;96661.53;;;12.44;100.00
65276;BME280;51875;49.994;14.052;2023-10-31T06:19:35;96667.56;;;12.59;100.00
65276;BME280;51875;49.994;14.052;2023-10-31T06:20:51;96666.16;;;12.53;100.00
65276;BME280;51875;49.994;14.052;2023-10-31T06:22:06;96674.25;;;12.50;100.00
65276;BME280;51875;49.994;14.052;2023-10-31T06:23:22;96673.53;;;12.61;100.00
65276;BME280;51875;49.994;14.052;2023-10-31T06:24:38;96681.38;;;12.48;100.00
65276;BME280;51875;49.994;14.052;2023-10-31T06:25:56;96688.09;;;12.52;100.00
65276;BME280;51875;49.994;14.052;2023-10-31T06:27:11;96688.75;;;12.56;100.00
65276;BME280;51875;49.994;14.052;2023-10-31T06:28:27;96681.53;;;12.60;100.00
65276;BME280;51875;49.994;14.052;2023-10-31T06:29:42;96677.97;;;12.61;100.00
65276;BME280;51875;49.994;14.052;2023-10-31T06:30:58;96680.41;;;12.77;100.00
65276;BME280;51875;49.994;14.052;2023-10-31T06:32:14;96691.56;;;12.80;100.00